KBMG/BMG METAR and TAF weather

Enter ICAO airport designator
Station Type Date Time Source
KBMG METAR 2019/04/18 19:53 UTC NOAA

KBMG 181953Z 21014G19KT 10SM BKN043 OVC070 18/16 A2967 RMK AO2 SLP040 T01830156


Station Type Date Time Source
KBMG Decoded METAR 2019/04/18 19:53 UTC NOAA

MONROE COUNTY AIRPORT, IN, United States (KBMG) 39-09N 086-37W 257M
Apr 18, 2019 - 03:53 PM EDT / 2019.04.18 1953 UTC
Wind: from the SSW (210 degrees) at 16 MPH (14 KT) gusting to 22 MPH (19 KT):0
Visibility: 10 mile(s):0
Sky conditions: overcast
Temperature: 64.9 F (18.3 C)
Dew Point: 60.1 F (15.6 C)
Relative Humidity: 84%
Pressure (altimeter): 29.67 in. Hg (1004 hPa)
ob: KBMG 181953Z 21014G19KT 10SM BKN043 OVC070 18/16 A2967 RMK AO2 SLP040 T01830156
cycle: 20

Station Type Date Time Source
KBMG TAF 2019/04/18 18:42 UTC NOAA

TAF
AMD KBMG 181740Z 1818/1918 21014G26KT 6SM -SHRA BR SCT015 OVC020
FM181900 21013G22KT 6SM -SHRA BR OVC012
FM182100 24010G20KT 5SM -SHRA BR VCTS OVC009CB
FM182300 27010G18KT 6SM -SHRA BR OVC010
FM190200 36009KT 4SM SHRA BR OVC008
FM190600 01013G22KT 4SM SHRA BR OVC007
FM191200 35012G22KT P6SM OVC009

Example: see airport list